Portada
METAR-TAF:

METAR-TAF

Aeroports :

Taiyuan, Xina

latitud: 37-47N, longitud: 112-33E, altitud: 779 m

Observació

L'informe es va fer fa 38 minuts, a les 17:30 UTC
Vent 6 kt del Oest/Sud-Oest, variant entre Sud-Oest i Oest
Temperatura 20°C
Humitat 24%
Pressió 1008 hPa
Visibilitat 10 km o més
sense núvols per sota de 1500 mi sense presència de cumulonimbus.

METAR: ZBYN 011730Z 25003MPS 220V280 CAVOK 20/M01 Q1008 NOSIG

Hora: 02:08 (18:08 UTC)

Pronòstic

L'informe es va fer fa 3 hores i 2 minuts, a les 15:06 UTC
Pronòstic vàlid del 01 a les 18 UTC al 02 a les 18 UTC
Vent 8 kt del Nord-Oest amb ràfegues de 19 kt
Visibilitat: 3000 m
calitja

TAF: ZBYN 011506Z 0118/0218 31004G10MPS 3000 HZ NSC TX30/0207Z TN11/0121Z

Observacions i pronòstics meteorològics de més de 4000 aeroports (METAR i TAF).

Les estacions disponibles són els punts grocs i vermells al mapa.

Posi el ratolí al punt desitjat per veure el nom de l'estació.

Feu clic per veure les observacions i els pronòstics meteorològics.

Per canviar el mapa: feu clic els botons verds amb una creu de color negre per apropar; al botó verd amb un guió per allunyar la imatge; o en les fletxes verdes per a mapes adjacents.


METAR-TAF: